Time;durP1;ratioP1;P1;durP2;ratioP2;P2;SDS_P1;SDS_P2;PMS_P1;PMS_P2;Temp;Humidity;BMP_temperature;BMP_pressure;BME280_temperature;BME280_humidity;BME280_pressure;Samples;Min_cycle;Max_cycle;Signal;HPM_P1;HPM_P2
2022/09/23 00:00:19;;;;;;;20.70;15.25;;;5.50;99.90;;;;;;20411185;29;20481;-48
2022/09/23 00:10:24;;;;;;;18.17;14.25;;;5.70;99.90;;;;;;20409992;29;20079;-60
2022/09/23 00:20:27;;;;;;;22.15;15.15;;;5.50;99.90;;;;;;20409613;29;20119;-49
2022/09/23 00:30:31;;;;;;;19.23;14.38;;;5.30;99.90;;;;;;20409626;29;20035;-50
2022/09/23 00:40:35;;;;;;;20.42;15.27;;;5.20;99.90;;;;;;20407756;29;20035;-60
2022/09/23 00:50:41;;;;;;;18.63;13.55;;;4.90;99.90;;;;;;20408452;29;20059;-51
2022/09/23 01:00:45;;;;;;;13.60;9.77;;;4.70;99.90;;;;;;20407286;29;20043;-50
2022/09/23 01:11:17;;;;;;;9.25;6.60;;;4.90;99.90;;;;;;20406571;29;20494;-47
2022/09/23 01:21:24;;;;;;;4.85;3.50;;;5.10;99.90;;;;;;20403648;29;20043;-51
2022/09/23 01:31:44;;;;;;;3.80;2.90;;;5.20;99.90;;;;;;20389775;29;20039;-50
2022/09/23 01:42:01;;;;;;;3.28;2.20;;;5.30;99.90;;;;;;20404207;29;20056;-49
2022/09/23 01:52:25;;;;;;;3.80;1.83;;;5.40;99.90;;;;;;20414238;29;20561;-49
2022/09/23 02:02:40;;;;;;;2.75;2.20;;;5.40;99.90;;;;;;20420059;29;20489;-51
2022/09/23 02:12:48;;;;;;;3.33;2.25;;;5.30;99.90;;;;;;20419127;29;20114;-52
2022/09/23 02:23:05;;;;;;;2.70;1.75;;;5.30;99.90;;;;;;20417746;29;20459;-47
2022/09/23 02:33:23;;;;;;;2.80;1.42;;;5.40;99.90;;;;;;20416561;29;20035;-47
2022/09/23 02:43:49;;;;;;;2.70;1.80;;;5.60;99.90;;;;;;20416053;29;20055;-49
2022/09/23 02:53:55;;;;;;;2.00;1.60;;;5.50;99.90;;;;;;20415471;29;20043;-48
2022/09/23 03:04:30;;;;;;;2.63;1.88;;;5.40;99.90;;;;;;20415078;29;20043;-60
2022/09/23 03:14:44;;;;;;;2.58;1.40;;;5.40;99.90;;;;;;20409353;29;20595;-48
2022/09/23 03:24:49;;;;;;;2.83;2.20;;;5.50;99.90;;;;;;20412951;29;20035;-48
2022/09/23 03:34:54;;;;;;;3.83;2.47;;;5.50;99.90;;;;;;20412398;29;20043;-49
2022/09/23 03:44:59;;;;;;;3.33;2.10;;;5.50;99.90;;;;;;20411175;29;20102;-48
2022/09/23 03:55:02;;;;;;;3.45;2.03;;;5.70;99.90;;;;;;20410491;29;20044;-50
2022/09/23 04:05:07;;;;;;;2.33;1.80;;;5.80;99.90;;;;;;20409845;29;20091;-49
2022/09/23 04:15:10;;;;;;;2.67;1.95;;;5.90;99.90;;;;;;20408191;29;20040;-49
2022/09/23 04:25:12;;;;;;;2.08;1.60;;;5.90;99.90;;;;;;20407881;29;20401;-48
2022/09/23 04:35:15;;;;;;;2.80;1.60;;;5.90;99.90;;;;;;20407457;29;20188;-51
2022/09/23 04:45:18;;;;;;;2.03;1.63;;;5.90;99.90;;;;;;20390625;29;20071;-48
2022/09/23 04:55:21;;;;;;;2.38;1.60;;;5.70;99.90;;;;;;20390356;29;20095;-50
2022/09/23 05:05:24;;;;;;;1.67;1.13;;;5.70;99.90;;;;;;20389846;29;20457;-48
2022/09/23 05:15:26;;;;;;;0.90;0.57;;;5.70;99.90;;;;;;20389148;29;20035;-48
2022/09/23 05:25:29;;;;;;;0.75;0.50;;;5.70;99.90;;;;;;20403808;29;20490;-48
2022/09/23 05:35:32;;;;;;;0.68;0.50;;;5.90;99.90;;;;;;20403817;29;20039;-51
2022/09/23 05:45:35;;;;;;;0.65;0.55;;;6.20;99.90;;;;;;20402945;29;20509;-49
2022/09/23 05:55:37;;;;;;;0.80;0.45;;;6.80;99.90;;;;;;20387468;29;20061;-47
2022/09/23 06:05:40;;;;;;;1.75;0.60;;;7.30;99.90;;;;;;20403724;29;20098;-57
2022/09/23 06:15:43;;;;;;;0.80;0.63;;;7.70;99.90;;;;;;20402376;29;20040;-49
2022/09/23 06:25:46;;;;;;;1.65;0.60;;;8.20;99.90;;;;;;20401700;29;20036;-47
2022/09/23 06:35:49;;;;;;;1.05;0.52;;;8.70;99.90;;;;;;20407657;29;20102;-46
2022/09/23 06:45:57;;;;;;;0.70;0.47;;;9.10;99.90;;;;;;20415423;29;20048;-48
2022/09/23 06:56:05;;;;;;;1.65;0.73;;;9.70;99.90;;;;;;20415104;29;20040;-47
2022/09/23 07:06:08;;;;;;;0.70;0.60;;;10.80;99.90;;;;;;20414014;29;20036;-45
2022/09/23 07:16:11;;;;;;;1.10;1.00;;;11.40;99.90;;;;;;20398181;29;20118;-47
2022/09/23 07:26:15;;;;;;;0.73;0.73;;;11.80;99.90;;;;;;20412682;29;20442;-48
2022/09/23 07:36:19;;;;;;;1.27;1.15;;;11.70;99.90;;;;;;20411904;29;20043;-45
2022/09/23 07:46:21;;;;;;;2.33;1.75;;;12.10;99.90;;;;;;20410838;29;20043;-46
2022/09/23 07:56:27;;;;;;;1.67;1.45;;;12.50;99.90;;;;;;20410386;29;20031;-49
2022/09/23 08:06:29;;;;;;;2.55;1.23;;;12.90;99.90;;;;;;20409559;29;20083;-46
2022/09/23 08:16:32;;;;;;;2.60;2.20;;;13.40;99.90;;;;;;20408961;29;20552;-50
2022/09/23 08:26:35;;;;;;;1.15;0.95;;;13.90;98.20;;;;;;20407868;29;20103;-48
2022/09/23 08:36:38;;;;;;;1.23;1.13;;;14.20;97.90;;;;;;20407329;29;20039;-46
2022/09/23 08:46:58;;;;;;;1.95;0.90;;;13.70;98.70;;;;;;20406377;29;20051;-58
2022/09/23 08:57:03;;;;;;;2.10;1.30;;;14.90;97.40;;;;;;20405473;29;20541;-58
2022/09/23 09:07:08;;;;;;;1.60;1.45;;;15.10;96.80;;;;;;20405637;29;20086;-48
2022/09/23 09:17:27;;;;;;;1.77;1.50;;;16.10;97.40;;;;;;20404946;29;20059;-47
2022/09/23 09:27:30;;;;;;;2.67;1.43;;;17.10;95.30;;;;;;20404279;29;20394;-47
2022/09/23 09:37:45;;;;;;;3.97;1.63;;;17.00;94.90;;;;;;20403742;29;20043;-48
2022/09/23 09:48:01;;;;;;;1.77;1.45;;;16.30;92.90;;;;;;20403045;29;20044;-52
2022/09/23 09:58:04;;;;;;;2.28;1.60;;;15.60;95.00;;;;;;20402783;29;20079;-48
2022/09/23 10:08:35;;;;;;;2.15;1.90;;;15.30;97.40;;;;;;20404796;29;20031;-48
2022/09/23 10:18:46;;;;;;;1.98;1.75;;;15.90;94.00;;;;;;20417597;29;20059;-48
2022/09/23 10:28:58;;;;;;;2.42;1.90;;;15.70;95.80;;;;;;20415806;29;20493;-48
2022/09/23 10:49:28;;;;;;;2.85;2.20;;;15.00;95.80;;;;;;20369552;29;20048;-46
2022/09/23 10:59:58;;;;;;;1.83;1.65;;;15.30;96.50;;;;;;20414922;29;20044;-50
2022/09/23 11:10:21;;;;;;;1.90;1.42;;;15.30;96.00;;;;;;20413725;29;20047;-48
2022/09/23 11:20:45;;;;;;;1.92;1.77;;;15.40;96.50;;;;;;20182069;29;20454;-51
2022/09/23 11:31:23;;;;;;;2.30;2.10;;;15.70;94.70;;;;;;20263487;29;20040;-58
2022/09/23 11:41:37;;;;;;;4.10;2.17;;;16.30;94.20;;;;;;20239449;29;20467;-46
2022/09/23 11:51:51;;;;;;;3.83;2.90;;;16.50;95.30;;;;;;20267332;29;20079;-46
2022/09/23 12:02:20;;;;;;;3.90;3.13;;;16.50;94.30;;;;;;20410219;29;20047;-48
2022/09/23 12:12:48;;;;;;;4.30;3.60;;;16.70;94.60;;;;;;20409642;29;20068;-58
2022/09/23 12:23:10;;;;;;;6.35;4.35;;;16.90;95.10;;;;;;20408531;29;20091;-46
2022/09/23 12:33:26;;;;;;;4.90;4.35;;;16.30;94.30;;;;;;20406543;29;20516;-59
2022/09/23 12:43:34;;;;;;;7.20;4.90;;;15.90;95.50;;;;;;20406821;29;20075;-51
2022/09/23 12:53:46;;;;;;;7.15;5.25;;;15.50;96.40;;;;;;20407425;29;20099;-48
2022/09/23 13:14:20;;;;;;;6.63;5.75;;;14.90;98.70;;;;;;20404776;29;20175;-47
2022/09/23 13:24:23;;;;;;;7.43;6.00;;;14.70;98.00;;;;;;20404462;29;20485;-48
2022/09/23 13:34:31;;;;;;;7.78;6.15;;;14.60;99.20;;;;;;20403632;29;20036;-49
2022/09/23 13:44:34;;;;;;;8.90;6.63;;;14.30;98.70;;;;;;20402950;29;20055;-45
2022/09/23 13:54:50;;;;;;;8.30;7.00;;;14.20;99.30;;;;;;20403026;29;20052;-46
2022/09/23 14:04:57;;;;;;;10.10;7.20;;;14.00;99.70;;;;;;20402728;29;20087;-47
2022/09/23 14:15:00;;;;;;;9.40;7.00;;;14.00;99.50;;;;;;20402572;29;20051;-59
2022/09/23 14:25:03;;;;;;;7.90;7.10;;;14.00;99.50;;;;;;20385484;29;20044;-47
2022/09/23 14:35:20;;;;;;;10.32;7.60;;;13.70;99.90;;;;;;20400851;29;20040;-58
2022/09/23 14:45:26;;;;;;;9.05;7.85;;;13.30;99.90;;;;;;20400172;29;20040;-47
2022/09/23 14:55:30;;;;;;;10.60;8.75;;;12.90;99.90;;;;;;20404081;29;20118;-47
2022/09/23 15:05:46;;;;;;;9.27;8.25;;;12.50;99.90;;;;;;20411552;29;20461;-49
2022/09/23 15:15:52;;;;;;;9.27;8.27;;;12.10;99.90;;;;;;20413514;29;20067;-47
2022/09/23 15:25:54;;;;;;;9.57;8.30;;;11.90;99.90;;;;;;20413566;29;20040;-50
2022/09/23 15:35:57;;;;;;;10.75;8.05;;;11.70;99.90;;;;;;20411322;29;20398;-47
2022/09/23 15:46:06;;;;;;;11.30;9.23;;;11.60;99.90;;;;;;20410500;29;20078;-49
2022/09/23 15:56:09;;;;;;;13.40;9.73;;;11.20;99.90;;;;;;20410004;29;20509;-46
2022/09/23 16:06:12;;;;;;;12.90;9.60;;;10.50;99.90;;;;;;20407968;29;20107;-57
2022/09/23 16:16:15;;;;;;;12.32;10.23;;;9.90;99.90;;;;;;20408552;29;20044;-51
2022/09/23 16:26:20;;;;;;;14.70;11.82;;;9.30;99.90;;;;;;20407169;29;20446;-46
2022/09/23 16:36:24;;;;;;;16.90;12.77;;;8.80;99.90;;;;;;20406436;29;20040;-48
2022/09/23 16:46:28;;;;;;;15.63;12.70;;;8.30;99.90;;;;;;20405646;29;20405;-47
2022/09/23 16:56:31;;;;;;;17.80;13.63;;;7.90;99.90;;;;;;20405143;29;20502;-46
2022/09/23 17:06:33;;;;;;;17.38;13.82;;;7.60;99.90;;;;;;20404486;29;20044;-49
2022/09/23 17:16:36;;;;;;;17.38;14.20;;;7.20;99.90;;;;;;20403651;29;20036;-48
2022/09/23 17:26:38;;;;;;;25.27;17.02;;;6.80;99.90;;;;;;20404149;29;20390;-47
2022/09/23 17:36:40;;;;;;;19.88;15.50;;;6.60;99.90;;;;;;20402807;29;20450;-49
2022/09/23 17:46:43;;;;;;;22.88;15.98;;;6.40;99.90;;;;;;20402633;29;20048;-49
2022/09/23 17:56:46;;;;;;;17.27;14.48;;;6.30;99.90;;;;;;20402075;29;20095;-46
2022/09/23 18:06:49;;;;;;;19.95;15.85;;;6.20;99.90;;;;;;20401750;29;20044;-57
2022/09/23 18:16:52;;;;;;;23.70;17.73;;;6.10;99.90;;;;;;20401498;29;20064;-48
2022/09/23 18:26:58;;;;;;;24.70;17.48;;;6.10;99.90;;;;;;20401360;29;20044;-51
2022/09/23 18:37:00;;;;;;;26.25;18.92;;;5.90;99.90;;;;;;20414675;29;20485;-49
2022/09/23 18:47:03;;;;;;;24.58;18.73;;;5.80;99.90;;;;;;20413803;29;20099;-51
2022/09/23 18:57:06;;;;;;;24.85;18.48;;;5.80;99.90;;;;;;20413273;29;20035;-50
2022/09/23 19:07:08;;;;;;;26.10;19.65;;;5.60;99.90;;;;;;20412247;29;20131;-49
2022/09/23 19:17:11;;;;;;;29.52;21.25;;;5.50;99.90;;;;;;20412010;29;20075;-50
2022/09/23 19:27:13;;;;;;;27.15;19.08;;;5.60;99.90;;;;;;20411281;29;20063;-48
2022/09/23 19:37:16;;;;;;;37.15;25.35;;;5.70;99.90;;;;;;20410850;29;20501;-49
2022/09/23 19:47:18;;;;;;;30.85;20.90;;;5.60;99.90;;;;;;20409815;29;20040;-48
2022/09/23 19:57:21;;;;;;;25.77;20.05;;;5.60;99.90;;;;;;20319148;29;20035;-50
2022/09/23 20:07:24;;;;;;;28.35;20.20;;;5.70;99.90;;;;;;20354499;29;20048;-51
2022/09/23 20:17:29;;;;;;;26.52;19.27;;;5.80;99.90;;;;;;20408173;29;20370;-50
2022/09/23 20:27:33;;;;;;;30.05;20.65;;;5.80;99.90;;;;;;20407598;29;20035;-49
2022/09/23 20:37:36;;;;;;;26.98;19.00;;;5.90;99.90;;;;;;20406827;29;20203;-52
2022/09/23 20:47:38;;;;;;;28.45;19.70;;;6.20;99.90;;;;;;20405725;29;20409;-48
2022/09/23 20:57:43;;;;;;;26.98;18.52;;;6.30;99.90;;;;;;20405196;29;20039;-48
2022/09/23 21:07:46;;;;;;;24.02;17.35;;;6.50;99.90;;;;;;20404693;29;20405;-49
2022/09/23 21:17:48;;;;;;;21.70;16.83;;;6.60;99.90;;;;;;20403602;29;20099;-48
2022/09/23 21:27:52;;;;;;;22.60;17.42;;;6.70;99.90;;;;;;20387717;29;20040;-49
2022/09/23 21:37:54;;;;;;;23.42;17.15;;;6.90;99.90;;;;;;20402534;29;20453;-50
2022/09/23 21:47:56;;;;;;;25.13;17.45;;;7.10;99.90;;;;;;20402305;29;20039;-50
2022/09/23 21:58:00;;;;;;;22.88;17.27;;;7.10;99.90;;;;;;20402434;29;20044;-48
2022/09/23 22:08:02;;;;;;;26.08;18.95;;;7.20;99.90;;;;;;20411958;29;20102;-48
2022/09/23 22:18:04;;;;;;;18.90;15.10;;;7.20;99.90;;;;;;20418324;29;20035;-48
2022/09/23 22:38:29;;;;;;;17.48;12.25;;;7.70;99.90;;;;;;20415806;29;20090;-50
2022/09/23 22:48:32;;;;;;;15.82;10.75;;;8.10;99.90;;;;;;20399157;29;20486;-50
2022/09/23 22:58:35;;;;;;;20.38;11.52;;;8.40;99.90;;;;;;20415692;29;20138;-49
2022/09/23 23:08:38;;;;;;;16.77;10.32;;;8.40;99.90;;;;;;20413550;29;20040;-49
2022/09/23 23:18:42;;;;;;;16.75;10.52;;;8.40;99.90;;;;;;20412119;29;20035;-46
2022/09/23 23:28:44;;;;;;;13.70;10.40;;;8.20;99.90;;;;;;20412377;29;20032;-46
2022/09/23 23:38:50;;;;;;;14.23;10.45;;;8.10;99.90;;;;;;20411297;29;20091;-46
2022/09/23 23:48:54;;;;;;;17.35;10.73;;;8.00;99.90;;;;;;20410153;29;20040;-50
2022/09/23 23:58:59;;;;;;;20.23;12.35;;;7.90;99.90;;;;;;20410130;29;20036;-47
